sensor_id;sensor_type;location;lat;lon;timestamp;temperature;humidity
3504;DHT22;1766;53.490;10.174;2023-02-01T00:01:37;11.80;43.10
3504;DHT22;1766;53.490;10.174;2023-02-01T00:07:47;11.70;43.40
3504;DHT22;1766;53.490;10.174;2023-02-01T00:09:49;11.70;43.50
3504;DHT22;1766;53.490;10.174;2023-02-01T00:11:51;11.60;43.50
3504;DHT22;1766;53.490;10.174;2023-02-01T00:16:02;11.70;43.70
3504;DHT22;1766;53.490;10.174;2023-02-01T00:18:05;11.80;43.90
3504;DHT22;1766;53.490;10.174;2023-02-01T00:20:07;11.80;43.90
3504;DHT22;1766;53.490;10.174;2023-02-01T00:22:10;11.80;44.00
3504;DHT22;1766;53.490;10.174;2023-02-01T00:24:13;11.80;44.10
3504;DHT22;1766;53.490;10.174;2023-02-01T00:26:16;11.80;44.00
3504;DHT22;1766;53.490;10.174;2023-02-01T00:28:19;11.90;44.00
3504;DHT22;1766;53.490;10.174;2023-02-01T00:32:23;11.90;44.10
3504;DHT22;1766;53.490;10.174;2023-02-01T00:34:25;11.90;44.10
3504;DHT22;1766;53.490;10.174;2023-02-01T00:36:27;12.00;44.10
3504;DHT22;1766;53.490;10.174;2023-02-01T00:38:30;12.10;44.00
3504;DHT22;1766;53.490;10.174;2023-02-01T00:40:33;12.10;44.00
3504;DHT22;1766;53.490;10.174;2023-02-01T00:42:35;12.10;44.00
3504;DHT22;1766;53.490;10.174;2023-02-01T00:44:37;12.10;44.00
3504;DHT22;1766;53.490;10.174;2023-02-01T00:46:39;12.20;44.10
3504;DHT22;1766;53.490;10.174;2023-02-01T00:48:41;12.20;43.90
3504;DHT22;1766;53.490;10.174;2023-02-01T00:52:45;12.30;44.10
3504;DHT22;1766;53.490;10.174;2023-02-01T00:54:47;12.40;44.20
3504;DHT22;1766;53.490;10.174;2023-02-01T00:56:50;12.40;44.10
3504;DHT22;1766;53.490;10.174;2023-02-01T01:01:01;12.40;44.10
3504;DHT22;1766;53.490;10.174;2023-02-01T01:03:04;12.50;44.20
3504;DHT22;1766;53.490;10.174;2023-02-01T01:05:17;12.50;44.10
3504;DHT22;1766;53.490;10.174;2023-02-01T01:07:19;12.50;44.00
3504;DHT22;1766;53.490;10.174;2023-02-01T01:09:21;12.50;44.00
3504;DHT22;1766;53.490;10.174;2023-02-01T01:11:25;12.50;44.00
3504;DHT22;1766;53.490;10.174;2023-02-01T01:13:29;12.60;44.00
3504;DHT22;1766;53.490;10.174;2023-02-01T01:15:31;12.60;44.00
3504;DHT22;1766;53.490;10.174;2023-02-01T01:17:37;12.60;43.90
3504;DHT22;1766;53.490;10.174;2023-02-01T01:19:39;12.70;44.00
3504;DHT22;1766;53.490;10.174;2023-02-01T01:21:40;12.70;43.90
3504;DHT22;1766;53.490;10.174;2023-02-01T01:23:43;12.70;43.80
3504;DHT22;1766;53.490;10.174;2023-02-01T01:25:45;12.70;43.70
3504;DHT22;1766;53.490;10.174;2023-02-01T01:29:50;12.80;43.60
3504;DHT22;1766;53.490;10.174;2023-02-01T01:31:52;12.80;43.60
3504;DHT22;1766;53.490;10.174;2023-02-01T01:33:56;12.80;43.60
3504;DHT22;1766;53.490;10.174;2023-02-01T01:35:58;12.80;43.60
3504;DHT22;1766;53.490;10.174;2023-02-01T01:38:00;12.80;43.60
3504;DHT22;1766;53.490;10.174;2023-02-01T01:40:03;12.80;43.60
3504;DHT22;1766;53.490;10.174;2023-02-01T01:42:08;12.90;43.60
3504;DHT22;1766;53.490;10.174;2023-02-01T01:47:00;12.90;43.30
3504;DHT22;1766;53.490;10.174;2023-02-01T01:49:07;12.90;43.30
3504;DHT22;1766;53.490;10.174;2023-02-01T01:51:13;12.90;43.30
3504;DHT22;1766;53.490;10.174;2023-02-01T01:53:18;13.00;43.50
3504;DHT22;1766;53.490;10.174;2023-02-01T01:55:23;13.00;43.40
3504;DHT22;1766;53.490;10.174;2023-02-01T01:57:29;13.00;43.40
3504;DHT22;1766;53.490;10.174;2023-02-01T01:59:35;13.00;43.40
3504;DHT22;1766;53.490;10.174;2023-02-01T02:01:37;13.00;43.40
3504;DHT22;1766;53.490;10.174;2023-02-01T02:03:42;13.00;43.30
3504;DHT22;1766;53.490;10.174;2023-02-01T02:05:45;13.00;43.30
3504;DHT22;1766;53.490;10.174;2023-02-01T02:07:49;13.00;43.20
3504;DHT22;1766;53.490;10.174;2023-02-01T02:09:52;13.00;43.10
3504;DHT22;1766;53.490;10.174;2023-02-01T02:13:57;13.00;43.20
3504;DHT22;1766;53.490;10.174;2023-02-01T02:16:09;13.00;43.10
3504;DHT22;1766;53.490;10.174;2023-02-01T02:18:25;13.00;43.10
3504;DHT22;1766;53.490;10.174;2023-02-01T02:20:45;13.00;43.10
3504;DHT22;1766;53.490;10.174;2023-02-01T02:23:20;13.00;43.10
3504;DHT22;1766;53.490;10.174;2023-02-01T02:25:52;13.00;43.00
3504;DHT22;1766;53.490;10.174;2023-02-01T02:28:16;13.00;43.00
3504;DHT22;1766;53.490;10.174;2023-02-01T02:30:40;13.00;43.10
3504;DHT22;1766;53.490;10.174;2023-02-01T02:35:30;12.80;43.10
3504;DHT22;1766;53.490;10.174;2023-02-01T02:37:39;12.70;43.30
3504;DHT22;1766;53.490;10.174;2023-02-01T02:39:48;12.60;43.50
3504;DHT22;1766;53.490;10.174;2023-02-01T02:41:59;12.60;43.60
3504;DHT22;1766;53.490;10.174;2023-02-01T02:44:21;12.50;43.80
3504;DHT22;1766;53.490;10.174;2023-02-01T02:46:46;12.50;44.00
3504;DHT22;1766;53.490;10.174;2023-02-01T02:49:10;12.50;44.20
3504;DHT22;1766;53.490;10.174;2023-02-01T02:51:17;12.40;44.40
3504;DHT22;1766;53.490;10.174;2023-02-01T02:53:41;12.40;44.40
3504;DHT22;1766;53.490;10.174;2023-02-01T02:56:04;12.40;44.60
3504;DHT22;1766;53.490;10.174;2023-02-01T02:58:21;12.40;44.80
3504;DHT22;1766;53.490;10.174;2023-02-01T03:00:37;12.30;44.80
3504;DHT22;1766;53.490;10.174;2023-02-01T03:05:12;12.20;45.00
3504;DHT22;1766;53.490;10.174;2023-02-01T03:09:51;12.10;45.20
3504;DHT22;1766;53.490;10.174;2023-02-01T03:11:56;12.10;45.30
3504;DHT22;1766;53.490;10.174;2023-02-01T03:14:15;12.10;45.40
3504;DHT22;1766;53.490;10.174;2023-02-01T03:16:21;12.20;45.50
3504;DHT22;1766;53.490;10.174;2023-02-01T03:18:30;12.20;45.30
3504;DHT22;1766;53.490;10.174;2023-02-01T03:20:38;12.20;45.50
3504;DHT22;1766;53.490;10.174;2023-02-01T03:22:42;12.10;45.40
3504;DHT22;1766;53.490;10.174;2023-02-01T03:24:47;12.10;45.50
3504;DHT22;1766;53.490;10.174;2023-02-01T03:26:53;12.10;45.50
3504;DHT22;1766;53.490;10.174;2023-02-01T03:29:02;12.10;45.60
3504;DHT22;1766;53.490;10.174;2023-02-01T03:31:09;12.10;45.70
3504;DHT22;1766;53.490;10.174;2023-02-01T03:33:14;12.00;45.80
3504;DHT22;1766;53.490;10.174;2023-02-01T03:35:29;12.00;45.90
3504;DHT22;1766;53.490;10.174;2023-02-01T03:37:34;11.90;46.10
3504;DHT22;1766;53.490;10.174;2023-02-01T03:39:39;11.90;46.20
3504;DHT22;1766;53.490;10.174;2023-02-01T03:41:47;11.80;46.30
3504;DHT22;1766;53.490;10.174;2023-02-01T03:43:54;11.70;46.50
3504;DHT22;1766;53.490;10.174;2023-02-01T03:46:01;11.60;46.80
3504;DHT22;1766;53.490;10.174;2023-02-01T03:48:05;11.50;47.00
3504;DHT22;1766;53.490;10.174;2023-02-01T03:50:10;11.40;46.90
3504;DHT22;1766;53.490;10.174;2023-02-01T03:52:15;11.30;47.00
3504;DHT22;1766;53.490;10.174;2023-02-01T03:54:31;11.30;47.20
3504;DHT22;1766;53.490;10.174;2023-02-01T03:56:36;11.10;47.20
3504;DHT22;1766;53.490;10.174;2023-02-01T04:00:45;11.10;47.40
3504;DHT22;1766;53.490;10.174;2023-02-01T04:02:47;11.10;47.60
3504;DHT22;1766;53.490;10.174;2023-02-01T04:04:49;11.00;47.50
3504;DHT22;1766;53.490;10.174;2023-02-01T04:06:51;11.00;47.70
3504;DHT22;1766;53.490;10.174;2023-02-01T04:10:57;11.10;47.70
3504;DHT22;1766;53.490;10.174;2023-02-01T04:12:59;11.10;47.70
3504;DHT22;1766;53.490;10.174;2023-02-01T04:15:01;11.10;47.70
3504;DHT22;1766;53.490;10.174;2023-02-01T04:19:06;11.20;47.90
3504;DHT22;1766;53.490;10.174;2023-02-01T04:21:07;11.20;47.90
3504;DHT22;1766;53.490;10.174;2023-02-01T04:23:09;11.30;48.30
3504;DHT22;1766;53.490;10.174;2023-02-01T04:25:11;11.30;48.20
3504;DHT22;1766;53.490;10.174;2023-02-01T04:27:14;11.30;48.10
3504;DHT22;1766;53.490;10.174;2023-02-01T04:29:16;11.30;48.00
3504;DHT22;1766;53.490;10.174;2023-02-01T04:31:19;11.30;48.20
3504;DHT22;1766;53.490;10.174;2023-02-01T04:33:25;11.40;48.30
3504;DHT22;1766;53.490;10.174;2023-02-01T04:35:27;11.40;48.10
3504;DHT22;1766;53.490;10.174;2023-02-01T04:37:29;11.40;48.10
3504;DHT22;1766;53.490;10.174;2023-02-01T04:39:31;11.40;48.00
3504;DHT22;1766;53.490;10.174;2023-02-01T04:41:33;11.40;48.00
3504;DHT22;1766;53.490;10.174;2023-02-01T04:43:36;11.40;47.90
3504;DHT22;1766;53.490;10.174;2023-02-01T04:45:38;11.40;48.00
3504;DHT22;1766;53.490;10.174;2023-02-01T04:47:40;11.50;48.00
3504;DHT22;1766;53.490;10.174;2023-02-01T04:49:42;11.50;48.00
3504;DHT22;1766;53.490;10.174;2023-02-01T04:51:44;11.50;48.00
3504;DHT22;1766;53.490;10.174;2023-02-01T04:53:46;11.50;48.10
3504;DHT22;1766;53.490;10.174;2023-02-01T04:55:48;11.40;48.10
3504;DHT22;1766;53.490;10.174;2023-02-01T04:59:54;11.40;48.30
3504;DHT22;1766;53.490;10.174;2023-02-01T05:03:59;11.30;48.40
3504;DHT22;1766;53.490;10.174;2023-02-01T05:06:01;11.20;48.60
3504;DHT22;1766;53.490;10.174;2023-02-01T05:10:07;11.20;48.70
3504;DHT22;1766;53.490;10.174;2023-02-01T05:12:10;11.10;48.70
3504;DHT22;1766;53.490;10.174;2023-02-01T05:14:26;11.20;48.90
3504;DHT22;1766;53.490;10.174;2023-02-01T05:16:29;11.10;48.80
3504;DHT22;1766;53.490;10.174;2023-02-01T05:18:31;11.00;48.90
3504;DHT22;1766;53.490;10.174;2023-02-01T05:20:32;10.90;48.50
3504;DHT22;1766;53.490;10.174;2023-02-01T05:22:34;10.80;48.70
3504;DHT22;1766;53.490;10.174;2023-02-01T05:24:36;10.70;48.70
3504;DHT22;1766;53.490;10.174;2023-02-01T05:28:40;10.60;49.00
3504;DHT22;1766;53.490;10.174;2023-02-01T05:30:42;10.50;48.90
3504;DHT22;1766;53.490;10.174;2023-02-01T05:32:45;10.40;48.80
3504;DHT22;1766;53.490;10.174;2023-02-01T05:34:51;10.30;48.60
3504;DHT22;1766;53.490;10.174;2023-02-01T05:36:52;10.30;48.60
3504;DHT22;1766;53.490;10.174;2023-02-01T05:38:55;10.10;48.50
3504;DHT22;1766;53.490;10.174;2023-02-01T05:40:57;10.10;48.70
3504;DHT22;1766;53.490;10.174;2023-02-01T05:42:59;10.00;48.70
3504;DHT22;1766;53.490;10.174;2023-02-01T05:45:02;10.00;48.70
3504;DHT22;1766;53.490;10.174;2023-02-01T05:47:06;10.00;48.90
3504;DHT22;1766;53.490;10.174;2023-02-01T05:49:09;10.00;48.80
3504;DHT22;1766;53.490;10.174;2023-02-01T05:51:11;10.00;49.00
3504;DHT22;1766;53.490;10.174;2023-02-01T05:53:13;10.00;48.80
3504;DHT22;1766;53.490;10.174;2023-02-01T05:55:15;10.00;48.80
3504;DHT22;1766;53.490;10.174;2023-02-01T05:57:17;10.00;48.80
3504;DHT22;1766;53.490;10.174;2023-02-01T05:59:19;10.00;48.90
3504;DHT22;1766;53.490;10.174;2023-02-01T06:01:21;9.90;49.60
3504;DHT22;1766;53.490;10.174;2023-02-01T06:03:23;9.90;49.70
3504;DHT22;1766;53.490;10.174;2023-02-01T06:05:26;9.80;49.70
3504;DHT22;1766;53.490;10.174;2023-02-01T06:07:28;9.90;49.80
3504;DHT22;1766;53.490;10.174;2023-02-01T06:09:33;9.90;49.70
3504;DHT22;1766;53.490;10.174;2023-02-01T06:11:34;9.90;49.60
3504;DHT22;1766;53.490;10.174;2023-02-01T06:13:36;9.80;49.60
3504;DHT22;1766;53.490;10.174;2023-02-01T06:15:39;9.80;49.70
3504;DHT22;1766;53.490;10.174;2023-02-01T06:17:44;9.80;49.70
3504;DHT22;1766;53.490;10.174;2023-02-01T06:19:46;9.90;49.90
3504;DHT22;1766;53.490;10.174;2023-02-01T06:21:50;9.90;49.80
3504;DHT22;1766;53.490;10.174;2023-02-01T06:23:52;9.90;49.90
3504;DHT22;1766;53.490;10.174;2023-02-01T06:25:59;9.90;49.80
3504;DHT22;1766;53.490;10.174;2023-02-01T06:28:02;9.90;49.80
3504;DHT22;1766;53.490;10.174;2023-02-01T06:30:07;9.90;49.80
3504;DHT22;1766;53.490;10.174;2023-02-01T06:32:10;9.90;49.90
3504;DHT22;1766;53.490;10.174;2023-02-01T06:34:12;9.90;49.50
3504;DHT22;1766;53.490;10.174;2023-02-01T06:36:18;9.90;50.00
3504;DHT22;1766;53.490;10.174;2023-02-01T06:38:22;10.00;49.20
3504;DHT22;1766;53.490;10.174;2023-02-01T06:40:25;10.00;48.90
3504;DHT22;1766;53.490;10.174;2023-02-01T06:42:27;10.00;49.10
3504;DHT22;1766;53.490;10.174;2023-02-01T06:44:29;10.10;49.40
3504;DHT22;1766;53.490;10.174;2023-02-01T06:46:31;10.20;49.60
3504;DHT22;1766;53.490;10.174;2023-02-01T06:48:33;10.70;49.50
3504;DHT22;1766;53.490;10.174;2023-02-01T06:50:36;10.20;49.20
3504;DHT22;1766;53.490;10.174;2023-02-01T06:52:38;10.30;49.20
3504;DHT22;1766;53.490;10.174;2023-02-01T06:54:42;10.40;49.60
3504;DHT22;1766;53.490;10.174;2023-02-01T06:56:44;10.40;49.90
3504;DHT22;1766;53.490;10.174;2023-02-01T06:58:47;10.40;49.90
3504;DHT22;1766;53.490;10.174;2023-02-01T07:00:50;10.50;50.00
3504;DHT22;1766;53.490;10.174;2023-02-01T07:04:56;10.50;49.90
3504;DHT22;1766;53.490;10.174;2023-02-01T07:09:01;10.60;50.10
3504;DHT22;1766;53.490;10.174;2023-02-01T07:11:07;10.60;50.10
3504;DHT22;1766;53.490;10.174;2023-02-01T07:13:10;10.80;50.50
3504;DHT22;1766;53.490;10.174;2023-02-01T07:15:14;10.80;50.30
3504;DHT22;1766;53.490;10.174;2023-02-01T07:17:17;10.80;50.00
3504;DHT22;1766;53.490;10.174;2023-02-01T07:19:19;10.80;50.30
3504;DHT22;1766;53.490;10.174;2023-02-01T07:21:21;10.80;50.20
3504;DHT22;1766;53.490;10.174;2023-02-01T07:23:23;10.90;50.50
3504;DHT22;1766;53.490;10.174;2023-02-01T07:27:30;10.70;50.20
3504;DHT22;1766;53.490;10.174;2023-02-01T07:31:35;11.00;50.50
3504;DHT22;1766;53.490;10.174;2023-02-01T07:33:37;11.00;50.60
3504;DHT22;1766;53.490;10.174;2023-02-01T07:35:40;10.90;50.20
3504;DHT22;1766;53.490;10.174;2023-02-01T07:37:42;11.00;50.40
3504;DHT22;1766;53.490;10.174;2023-02-01T07:39:44;11.00;50.10
3504;DHT22;1766;53.490;10.174;2023-02-01T07:41:46;11.10;50.80
3504;DHT22;1766;53.490;10.174;2023-02-01T07:43:52;11.10;50.60
3504;DHT22;1766;53.490;10.174;2023-02-01T07:45:55;11.10;50.90
3504;DHT22;1766;53.490;10.174;2023-02-01T07:47:57;11.10;51.20
3504;DHT22;1766;53.490;10.174;2023-02-01T07:52:01;11.20;50.80
3504;DHT22;1766;53.490;10.174;2023-02-01T07:54:03;11.20;50.70
3504;DHT22;1766;53.490;10.174;2023-02-01T07:56:10;11.20;50.70
3504;DHT22;1766;53.490;10.174;2023-02-01T07:58:13;11.30;50.90
3504;DHT22;1766;53.490;10.174;2023-02-01T08:00:17;11.30;50.90
3504;DHT22;1766;53.490;10.174;2023-02-01T08:02:33;11.40;51.10
3504;DHT22;1766;53.490;10.174;2023-02-01T08:04:35;11.40;51.10
3504;DHT22;1766;53.490;10.174;2023-02-01T08:06:37;11.40;51.10
3504;DHT22;1766;53.490;10.174;2023-02-01T08:08:40;11.40;51.00
3504;DHT22;1766;53.490;10.174;2023-02-01T08:10:42;11.50;51.20
3504;DHT22;1766;53.490;10.174;2023-02-01T08:12:45;11.50;51.10
3504;DHT22;1766;53.490;10.174;2023-02-01T08:14:49;11.50;51.50
3504;DHT22;1766;53.490;10.174;2023-02-01T08:16:52;11.50;51.10
3504;DHT22;1766;53.490;10.174;2023-02-01T08:18:54;11.60;51.10
3504;DHT22;1766;53.490;10.174;2023-02-01T08:20:56;11.60;51.20
3504;DHT22;1766;53.490;10.174;2023-02-01T08:22:58;11.60;51.20
3504;DHT22;1766;53.490;10.174;2023-02-01T08:25:00;11.70;51.30
3504;DHT22;1766;53.490;10.174;2023-02-01T08:27:02;11.70;51.00
3504;DHT22;1766;53.490;10.174;2023-02-01T08:29:06;11.70;51.10
3504;DHT22;1766;53.490;10.174;2023-02-01T08:31:10;11.80;51.40
3504;DHT22;1766;53.490;10.174;2023-02-01T08:33:16;11.80;51.40
3504;DHT22;1766;53.490;10.174;2023-02-01T08:35:18;11.90;51.30
3504;DHT22;1766;53.490;10.174;2023-02-01T08:37:20;11.90;51.10
3504;DHT22;1766;53.490;10.174;2023-02-01T08:39:22;11.80;51.10
3504;DHT22;1766;53.490;10.174;2023-02-01T08:41:26;12.10;51.30
3504;DHT22;1766;53.490;10.174;2023-02-01T08:43:29;12.10;51.50
3504;DHT22;1766;53.490;10.174;2023-02-01T08:45:31;12.20;51.40
3504;DHT22;1766;53.490;10.174;2023-02-01T08:47:33;12.40;51.50
3504;DHT22;1766;53.490;10.174;2023-02-01T08:49:37;12.50;51.60
3504;DHT22;1766;53.490;10.174;2023-02-01T08:51:39;12.40;50.90
3504;DHT22;1766;53.490;10.174;2023-02-01T08:53:41;12.60;50.60
3504;DHT22;1766;53.490;10.174;2023-02-01T08:55:43;12.50;50.60
3504;DHT22;1766;53.490;10.174;2023-02-01T08:57:46;12.60;50.60
3504;DHT22;1766;53.490;10.174;2023-02-01T08:59:48;12.50;50.50
3504;DHT22;1766;53.490;10.174;2023-02-01T09:01:50;12.70;50.60
3504;DHT22;1766;53.490;10.174;2023-02-01T09:03:52;12.70;50.40
3504;DHT22;1766;53.490;10.174;2023-02-01T09:06:01;12.70;50.10
3504;DHT22;1766;53.490;10.174;2023-02-01T09:08:03;12.70;49.90
3504;DHT22;1766;53.490;10.174;2023-02-01T09:10:06;12.80;49.70
3504;DHT22;1766;53.490;10.174;2023-02-01T09:12:08;11.90;49.00
3504;DHT22;1766;53.490;10.174;2023-02-01T09:14:10;12.70;49.10
3504;DHT22;1766;53.490;10.174;2023-02-01T09:16:12;12.80;49.50
3504;DHT22;1766;53.490;10.174;2023-02-01T09:18:14;12.90;49.40
3504;DHT22;1766;53.490;10.174;2023-02-01T09:20:16;12.90;49.10
3504;DHT22;1766;53.490;10.174;2023-02-01T09:22:21;12.90;49.40
3504;DHT22;1766;53.490;10.174;2023-02-01T09:24:23;12.90;48.80
3504;DHT22;1766;53.490;10.174;2023-02-01T09:26:25;12.90;48.60
3504;DHT22;1766;53.490;10.174;2023-02-01T09:28:27;13.00;48.70
3504;DHT22;1766;53.490;10.174;2023-02-01T09:30:29;12.90;48.90
3504;DHT22;1766;53.490;10.174;2023-02-01T09:32:30;13.00;48.60
3504;DHT22;1766;53.490;10.174;2023-02-01T09:34:33;13.00;48.60
3504;DHT22;1766;53.490;10.174;2023-02-01T09:36:35;13.00;48.60
3504;DHT22;1766;53.490;10.174;2023-02-01T09:38:38;13.00;48.50
3504;DHT22;1766;53.490;10.174;2023-02-01T09:40:42;12.80;47.70
3504;DHT22;1766;53.490;10.174;2023-02-01T09:45:23;12.60;48.40
3504;DHT22;1766;53.490;10.174;2023-02-01T09:47:29;12.50;48.30
3504;DHT22;1766;53.490;10.174;2023-02-01T09:49:36;12.40;48.40
3504;DHT22;1766;53.490;10.174;2023-02-01T09:51:45;12.40;48.80
3504;DHT22;1766;53.490;10.174;2023-02-01T09:53:56;12.50;49.10
3504;DHT22;1766;53.490;10.174;2023-02-01T09:56:05;12.60;49.20
3504;DHT22;1766;53.490;10.174;2023-02-01T09:58:12;12.50;48.90
3504;DHT22;1766;53.490;10.174;2023-02-01T10:00:22;12.60;48.90
3504;DHT22;1766;53.490;10.174;2023-02-01T10:02:28;12.60;49.10
3504;DHT22;1766;53.490;10.174;2023-02-01T10:04:31;12.70;49.10
3504;DHT22;1766;53.490;10.174;2023-02-01T10:06:42;12.80;49.00
3504;DHT22;1766;53.490;10.174;2023-02-01T10:09:04;12.80;49.00
3504;DHT22;1766;53.490;10.174;2023-02-01T10:11:23;13.00;49.30
3504;DHT22;1766;53.490;10.174;2023-02-01T10:13:38;13.00;48.70
3504;DHT22;1766;53.490;10.174;2023-02-01T10:15:54;13.20;48.60
3504;DHT22;1766;53.490;10.174;2023-02-01T10:18:17;13.10;48.30
3504;DHT22;1766;53.490;10.174;2023-02-01T10:20:30;13.20;48.20
3504;DHT22;1766;53.490;10.174;2023-02-01T10:22:42;13.30;47.90
3504;DHT22;1766;53.490;10.174;2023-02-01T10:24:47;13.30;47.90
3504;DHT22;1766;53.490;10.174;2023-02-01T10:27:02;13.40;47.40
3504;DHT22;1766;53.490;10.174;2023-02-01T10:29:14;13.40;47.30
3504;DHT22;1766;53.490;10.174;2023-02-01T10:31:18;13.40;47.30
3504;DHT22;1766;53.490;10.174;2023-02-01T10:33:24;13.40;47.20
3504;DHT22;1766;53.490;10.174;2023-02-01T10:35:31;13.40;47.20
3504;DHT22;1766;53.490;10.174;2023-02-01T10:37:34;13.30;47.20
3504;DHT22;1766;53.490;10.174;2023-02-01T10:39:36;13.30;47.20
3504;DHT22;1766;53.490;10.174;2023-02-01T10:41:40;13.20;46.90
3504;DHT22;1766;53.490;10.174;2023-02-01T10:43:44;13.20;46.80
3504;DHT22;1766;53.490;10.174;2023-02-01T10:45:49;13.00;47.00
3504;DHT22;1766;53.490;10.174;2023-02-01T10:47:53;13.00;47.10
3504;DHT22;1766;53.490;10.174;2023-02-01T10:50:03;12.80;47.30
3504;DHT22;1766;53.490;10.174;2023-02-01T10:52:17;12.70;47.30
3504;DHT22;1766;53.490;10.174;2023-02-01T10:54:33;12.70;47.50
3504;DHT22;1766;53.490;10.174;2023-02-01T10:56:39;12.60;47.70
3504;DHT22;1766;53.490;10.174;2023-02-01T10:58:45;12.50;47.80
3504;DHT22;1766;53.490;10.174;2023-02-01T11:00:53;12.50;48.00
3504;DHT22;1766;53.490;10.174;2023-02-01T11:05:00;12.40;47.50
3504;DHT22;1766;53.490;10.174;2023-02-01T11:07:12;11.60;47.70
3504;DHT22;1766;53.490;10.174;2023-02-01T11:09:24;12.40;48.20
3504;DHT22;1766;53.490;10.174;2023-02-01T11:11:27;12.40;48.40
3504;DHT22;1766;53.490;10.174;2023-02-01T11:13:33;12.30;48.20
3504;DHT22;1766;53.490;10.174;2023-02-01T11:15:43;12.30;48.40
3504;DHT22;1766;53.490;10.174;2023-02-01T11:17:48;12.30;48.50
3504;DHT22;1766;53.490;10.174;2023-02-01T11:19:57;12.40;48.60
3504;DHT22;1766;53.490;10.174;2023-02-01T11:22:00;12.40;48.30
3504;DHT22;1766;53.490;10.174;2023-02-01T11:24:04;12.40;48.40
3504;DHT22;1766;53.490;10.174;2023-02-01T11:26:12;12.40;48.70
3504;DHT22;1766;53.490;10.174;2023-02-01T11:28:15;12.40;48.80
3504;DHT22;1766;53.490;10.174;2023-02-01T11:30:27;12.50;48.90
3504;DHT22;1766;53.490;10.174;2023-02-01T11:32:33;12.60;48.90
3504;DHT22;1766;53.490;10.174;2023-02-01T11:34:38;12.60;48.50
3504;DHT22;1766;53.490;10.174;2023-02-01T11:36:45;12.60;48.30
3504;DHT22;1766;53.490;10.174;2023-02-01T11:38:52;12.60;48.60
3504;DHT22;1766;53.490;10.174;2023-02-01T11:41:11;12.60;48.80
3504;DHT22;1766;53.490;10.174;2023-02-01T11:43:19;12.60;48.90
3504;DHT22;1766;53.490;10.174;2023-02-01T11:45:28;12.70;48.90
3504;DHT22;1766;53.490;10.174;2023-02-01T11:47:38;12.70;48.80
3504;DHT22;1766;53.490;10.174;2023-02-01T11:49:41;12.70;48.80
3504;DHT22;1766;53.490;10.174;2023-02-01T11:52:03;12.80;48.80
3504;DHT22;1766;53.490;10.174;2023-02-01T11:54:28;12.70;48.80
3504;DHT22;1766;53.490;10.174;2023-02-01T11:56:36;12.80;48.90
3504;DHT22;1766;53.490;10.174;2023-02-01T11:58:52;12.80;48.40
3504;DHT22;1766;53.490;10.174;2023-02-01T12:01:12;12.80;48.60
3504;DHT22;1766;53.490;10.174;2023-02-01T12:03:47;12.80;49.00
3504;DHT22;1766;53.490;10.174;2023-02-01T12:06:08;12.90;47.80
3504;DHT22;1766;53.490;10.174;2023-02-01T12:08:47;12.90;48.00
3504;DHT22;1766;53.490;10.174;2023-02-01T12:11:17;12.90;47.40
3504;DHT22;1766;53.490;10.174;2023-02-01T12:13:39;11.80;47.00
3504;DHT22;1766;53.490;10.174;2023-02-01T12:15:56;12.70;47.60
3504;DHT22;1766;53.490;10.174;2023-02-01T12:18:27;12.70;47.50
3504;DHT22;1766;53.490;10.174;2023-02-01T12:20:53;12.60;47.50
3504;DHT22;1766;53.490;10.174;2023-02-01T12:23:18;12.60;47.40
3504;DHT22;1766;53.490;10.174;2023-02-01T12:25:34;12.40;47.30
3504;DHT22;1766;53.490;10.174;2023-02-01T12:27:55;12.30;47.60
3504;DHT22;1766;53.490;10.174;2023-02-01T12:30:20;12.30;47.70
3504;DHT22;1766;53.490;10.174;2023-02-01T12:32:51;12.30;47.80
3504;DHT22;1766;53.490;10.174;2023-02-01T12:35:13;12.20;47.90
3504;DHT22;1766;53.490;10.174;2023-02-01T12:37:28;12.10;48.00
3504;DHT22;1766;53.490;10.174;2023-02-01T12:39:40;12.20;48.20
3504;DHT22;1766;53.490;10.174;2023-02-01T12:41:57;12.10;48.10
3504;DHT22;1766;53.490;10.174;2023-02-01T12:44:04;12.10;48.20
3504;DHT22;1766;53.490;10.174;2023-02-01T12:46:17;12.10;48.60
3504;DHT22;1766;53.490;10.174;2023-02-01T12:48:29;12.00;48.40
3504;DHT22;1766;53.490;10.174;2023-02-01T12:50:42;12.00;48.80
3504;DHT22;1766;53.490;10.174;2023-02-01T12:52:48;11.90;48.30
3504;DHT22;1766;53.490;10.174;2023-02-01T12:54:57;11.80;48.50
3504;DHT22;1766;53.490;10.174;2023-02-01T12:57:04;11.70;48.50
3504;DHT22;1766;53.490;10.174;2023-02-01T12:59:17;11.70;48.60
3504;DHT22;1766;53.490;10.174;2023-02-01T13:01:27;11.60;48.20
3504;DHT22;1766;53.490;10.174;2023-02-01T13:03:36;11.50;48.50
3504;DHT22;1766;53.490;10.174;2023-02-01T13:05:49;11.50;48.00
3504;DHT22;1766;53.490;10.174;2023-02-01T13:07:55;11.30;48.20
3504;DHT22;1766;53.490;10.174;2023-02-01T13:10:05;11.30;48.00
3504;DHT22;1766;53.490;10.174;2023-02-01T13:12:16;11.20;48.20
3504;DHT22;1766;53.490;10.174;2023-02-01T13:14:25;11.20;48.20
3504;DHT22;1766;53.490;10.174;2023-02-01T13:16:32;11.10;48.30
3504;DHT22;1766;53.490;10.174;2023-02-01T13:18:39;11.10;48.50
3504;DHT22;1766;53.490;10.174;2023-02-01T13:20:49;11.00;48.30
3504;DHT22;1766;53.490;10.174;2023-02-01T13:23:00;11.00;48.60
3504;DHT22;1766;53.490;10.174;2023-02-01T13:25:11;11.00;48.30
3504;DHT22;1766;53.490;10.174;2023-02-01T13:27:16;11.10;48.50
3504;DHT22;1766;53.490;10.174;2023-02-01T13:29:19;11.00;48.40
3504;DHT22;1766;53.490;10.174;2023-02-01T13:31:42;11.00;48.60
3504;DHT22;1766;53.490;10.174;2023-02-01T13:36:54;11.80;49.60
3504;DHT22;1766;53.490;10.174;2023-02-01T13:39:35;11.30;49.40
3504;DHT22;1766;53.490;10.174;2023-02-01T13:41:53;10.80;49.10
3504;DHT22;1766;53.490;10.174;2023-02-01T13:43:59;11.90;49.30
3504;DHT22;1766;53.490;10.174;2023-02-01T13:46:06;12.00;48.80
3504;DHT22;1766;53.490;10.174;2023-02-01T13:48:19;12.10;49.10
3504;DHT22;1766;53.490;10.174;2023-02-01T13:50:27;12.20;49.30
3504;DHT22;1766;53.490;10.174;2023-02-01T13:52:40;12.50;49.40
3504;DHT22;1766;53.490;10.174;2023-02-01T13:54:45;12.70;49.40
3504;DHT22;1766;53.490;10.174;2023-02-01T13:56:47;12.90;48.30
3504;DHT22;1766;53.490;10.174;2023-02-01T13:58:49;13.00;48.00
3504;DHT22;1766;53.490;10.174;2023-02-01T14:03:44;13.00;47.80
3504;DHT22;1766;53.490;10.174;2023-02-01T14:06:00;13.10;47.50
3504;DHT22;1766;53.490;10.174;2023-02-01T14:08:12;13.00;47.20
3504;DHT22;1766;53.490;10.174;2023-02-01T14:12:48;12.80;46.90
3504;DHT22;1766;53.490;10.174;2023-02-01T14:14:51;13.00;47.20
3504;DHT22;1766;53.490;10.174;2023-02-01T14:19:35;13.20;47.50
3504;DHT22;1766;53.490;10.174;2023-02-01T14:21:47;13.50;47.30
3504;DHT22;1766;53.490;10.174;2023-02-01T14:23:58;13.60;47.10
3504;DHT22;1766;53.490;10.174;2023-02-01T14:26:14;13.70;46.00
3504;DHT22;1766;53.490;10.174;2023-02-01T14:28:24;13.60;45.70
3504;DHT22;1766;53.490;10.174;2023-02-01T14:30:27;13.50;45.50
3504;DHT22;1766;53.490;10.174;2023-02-01T14:32:32;13.50;45.50
3504;DHT22;1766;53.490;10.174;2023-02-01T14:34:39;13.40;45.60
3504;DHT22;1766;53.490;10.174;2023-02-01T14:36:57;13.30;45.50
3504;DHT22;1766;53.490;10.174;2023-02-01T14:39:01;13.20;45.30
3504;DHT22;1766;53.490;10.174;2023-02-01T14:41:26;13.10;45.10
3504;DHT22;1766;53.490;10.174;2023-02-01T14:43:48;12.90;45.20